Dauntless Aviation
Greetings, Guest! To participate, [sign up for a free account] or [log in]
Airports Europe United Kingdom
EGLC
LCY

London City

London, UNITED KINGDOM

Airport Info
Edit

Location

Latitude / Longitude: 51°30'18"N / 0°3'12"E
  51°30.3'N / 0°3.21'E
  51.5050 / 0.0535

Nearby radio navigation aids

LCY CITY NDB on field.

Runway Information

Runway 10 /28

Dimensions: 4948 x 98 ft.
Surface: ASP
 
Runway 10
Runway 28
Latitude: 51.505528 51.504922
Longitude: 0.045753 0.064953
Elevation: 16 ft. 16 ft.
Runway true heading: 91.1 271.1
 

Instrument Procedures

  Control Zone and Control Area Chart
  Aircraft Parking/Docking Chart
  Aerodrome Chart

STARs (Standard Terminal Arrivals)

  STAR via SPEAR (Northwest)
  STAR via ALKIN (South)
  STAR via SPEAR (East)
  STAR via SPEAR (West)
  STAR via SPEAR (Alternate Holding at LOGAN and ALKIN)

IAPs (Instrument Approach Procedures)

  LOC/DME/NDB (L) Rwy 27 (Aircraft CAT A/B/C)
  Visual Approach Profile Rwy 27
  ILS (5.5°GP) /DME/NDB (L) Rwy 27 (Aircraft CAT A/B/C)
  Visual Approach Profile Rwy 09
  LOC/DME/NDB (L) Rwy 09
  ATC Surveillance Minimum Altitude Chart
  ILS (5.5°GP) /DME/NDB (L) Rwy 09 (Aircraft CAT A/B/C)

Departure Procedures

  SID DOVER/LYDD
  SID CLACTON
  SID SOUTHAMPTON
  SID BROOKMANS PARK/COMPTON
Satellite photo at:
Airport distance calculator
From:
Weather Reports

METAR

EGLC

EGLC 231920Z 29004KT 9999 FEW014 SCT020 08/07 Q1019
EGKB
11.4nm S
EGKB 231920Z 34004KT 310V010 9000 SCT008 06/05 Q1019
EGWU
17.8nm W
EGWU 231850Z 31003KT 9999 FEW015 OVC150 07/06 Q1019 NOSIG
EGLL
18.9nm SW
EGLL 231920Z 30004KT CAVOK 08/07 Q1019
EGSS
23.5nm N
EGSS 231920Z 28003KT 6000 BKN011 06/06 Q1019
EGKK
23.8nm S
EGKK 231920Z VRB03KT 9999 BKN010 07/06 Q1019

TAF

EGLC
TAF EGLC 231700Z 2318/2322 33005KT 9999 FEW010 SCT030 TEMPO 2318/2320 7000 RA BKN010 PROB40 2320/2322 5000 MIFG BR
EGKB
11.4nm S
TAF AMD EGKB 231815Z 2318/2320 34008KT 9999 FEW008 SCT020 TEMPO 2318/2320 7000 RA BKN008
EGWU
17.8nm W
TAF EGWU 231636Z 2318/2412 30003KT 9999 FEW015 BKN070 BECMG 2320/2323 4000 MIFG BECMG 2323/2402 1500 PROB30 2401/2409 0500 FZFG VV/// BECMG 2408/2411 9999 NSW
EGLL
18.9nm SW
TAF EGLL 231702Z 2318/2424 31005KT 9999 BKN030 PROB30 TEMPO 2318/2320 BKN013 PROB30 2403/2406 1200 BCFG PROB30 2406/2410 0500 FG BKN001 PROB30 2418/2424 3000 BR
EGSS
23.5nm N
TAF AMD EGSS 231858Z 2318/2424 33006KT 6000 BKN016 BECMG 2319/2321 CAVOK PROB40 2321/2406 3000 MIFG BR PROB30 2406/2410 0600 FG VV/// TEMPO 2419/2424 3000 MIFG BR PROB30 2422/2424 0300 FG VV///
EGKK
23.8nm S
TAF EGKK 231702Z 2318/2424 VRB04KT 9999 FEW025 PROB30 TEMPO 2318/2320 7000 RA BKN012 BECMG 2400/2403 8000 PROB30 2403/2406 1500 BR PROB30 2406/2410 0600 FG FZFG BKN001 PROB30 TEMPO 2410/2413 BKN005 BECMG 2411/2413 CAVOK BECMG 2418/2421 7000 PROB30 2421/2424 3000 BR
Safelog

 

Dauntless Aviation

© 2007-2014 Dauntless Aviation, all rights reserved
Information provided via PilotNav comes from a variety of official and unofficial data sources. As errors are possible, do not use PilotNav for primary flight planning purposes. Verify any information that you receive via PilotNav with current and canonical charts and other official documents. The material in this database is subject to database copyrights held by Dauntless Aviation and may not be copied without the express permission of Dauntless Aviation - licenses for use of part of all of this data are available for purchase; enquire via the Dauntless Aviation helpdesk. A number of mechanisms and markers exist in the database to protect against and identify infringement / copyright. Automated queries against this website are stictly prohibited, and all activity is logged and analyzed.